sensor_id;sensor_type;location;lat;lon;timestamp;P1;durP1;ratioP1;P2;durP2;ratioP2
71790;SDS011;59638;52.126;5.434;2022-12-18T00:01:15;35.10;;;11.90;;
71790;SDS011;59638;52.126;5.434;2022-12-18T00:03:50;33.35;;;12.25;;
71790;SDS011;59638;52.126;5.434;2022-12-18T00:06:17;36.13;;;14.43;;
71790;SDS011;59638;52.126;5.434;2022-12-18T00:08:45;35.83;;;12.52;;
71790;SDS011;59638;52.126;5.434;2022-12-18T00:11:19;38.97;;;13.27;;
71790;SDS011;59638;52.126;5.434;2022-12-18T00:13:48;39.17;;;13.60;;
71790;SDS011;59638;52.126;5.434;2022-12-18T00:16:16;26.17;;;10.73;;
71790;SDS011;59638;52.126;5.434;2022-12-18T00:18:47;34.00;;;12.02;;
71790;SDS011;59638;52.126;5.434;2022-12-18T00:21:14;46.83;;;13.13;;
71790;SDS011;59638;52.126;5.434;2022-12-18T00:23:42;42.38;;;13.95;;
71790;SDS011;59638;52.126;5.434;2022-12-18T00:26:14;36.70;;;13.03;;
71790;SDS011;59638;52.126;5.434;2022-12-18T00:28:42;33.00;;;12.93;;
71790;SDS011;59638;52.126;5.434;2022-12-18T00:31:10;31.77;;;12.45;;
71790;SDS011;59638;52.126;5.434;2022-12-18T00:33:39;35.83;;;13.52;;
71790;SDS011;59638;52.126;5.434;2022-12-18T00:36:08;37.63;;;13.73;;
71790;SDS011;59638;52.126;5.434;2022-12-18T00:38:36;29.97;;;11.37;;
71790;SDS011;59638;52.126;5.434;2022-12-18T00:41:06;29.63;;;11.48;;
71790;SDS011;59638;52.126;5.434;2022-12-18T00:43:33;33.20;;;12.60;;
71790;SDS011;59638;52.126;5.434;2022-12-18T00:46:00;25.35;;;11.20;;
71790;SDS011;59638;52.126;5.434;2022-12-18T00:48:27;43.35;;;16.20;;
71790;SDS011;59638;52.126;5.434;2022-12-18T00:50:53;38.80;;;12.50;;
71790;SDS011;59638;52.126;5.434;2022-12-18T00:53:20;36.35;;;13.13;;
71790;SDS011;59638;52.126;5.434;2022-12-18T00:55:47;40.63;;;12.50;;
71790;SDS011;59638;52.126;5.434;2022-12-18T00:58:14;30.27;;;12.70;;
71790;SDS011;59638;52.126;5.434;2022-12-18T01:00:42;37.10;;;12.50;;
71790;SDS011;59638;52.126;5.434;2022-12-18T01:03:09;34.67;;;11.43;;
71790;SDS011;59638;52.126;5.434;2022-12-18T01:05:39;30.35;;;12.18;;
71790;SDS011;59638;52.126;5.434;2022-12-18T01:08:06;37.63;;;13.20;;
71790;SDS011;59638;52.126;5.434;2022-12-18T01:10:33;44.30;;;12.52;;
71790;SDS011;59638;52.126;5.434;2022-12-18T01:12:59;33.38;;;12.90;;
71790;SDS011;59638;52.126;5.434;2022-12-18T01:15:26;34.17;;;13.30;;
71790;SDS011;59638;52.126;5.434;2022-12-18T01:17:52;32.67;;;11.55;;
71790;SDS011;59638;52.126;5.434;2022-12-18T01:20:20;36.30;;;11.48;;
71790;SDS011;59638;52.126;5.434;2022-12-18T01:22:46;30.60;;;12.18;;
71790;SDS011;59638;52.126;5.434;2022-12-18T01:25:13;43.47;;;14.07;;
71790;SDS011;59638;52.126;5.434;2022-12-18T01:27:39;32.70;;;13.73;;
71790;SDS011;59638;52.126;5.434;2022-12-18T01:30:06;28.08;;;12.30;;
71790;SDS011;59638;52.126;5.434;2022-12-18T01:32:32;35.35;;;12.65;;
71790;SDS011;59638;52.126;5.434;2022-12-18T01:34:59;35.35;;;11.02;;
71790;SDS011;59638;52.126;5.434;2022-12-18T01:37:25;37.30;;;13.02;;
71790;SDS011;59638;52.126;5.434;2022-12-18T01:39:52;45.30;;;14.17;;
71790;SDS011;59638;52.126;5.434;2022-12-18T01:42:20;37.42;;;12.57;;
71790;SDS011;59638;52.126;5.434;2022-12-18T01:50:18;41.05;;;14.00;;
71790;SDS011;59638;52.126;5.434;2022-12-18T01:52:53;31.47;;;11.60;;
71790;SDS011;59638;52.126;5.434;2022-12-18T01:55:23;46.45;;;13.60;;
71790;SDS011;59638;52.126;5.434;2022-12-18T01:57:52;43.85;;;14.13;;
71790;SDS011;59638;52.126;5.434;2022-12-18T02:00:21;37.70;;;13.38;;
71790;SDS011;59638;52.126;5.434;2022-12-18T02:02:49;34.10;;;11.88;;
71790;SDS011;59638;52.126;5.434;2022-12-18T02:05:17;36.00;;;13.30;;
71790;SDS011;59638;52.126;5.434;2022-12-18T02:07:59;32.85;;;11.65;;
71790;SDS011;59638;52.126;5.434;2022-12-18T02:10:45;34.00;;;12.10;;
71790;SDS011;59638;52.126;5.434;2022-12-18T02:18:45;31.53;;;11.70;;
71790;SDS011;59638;52.126;5.434;2022-12-18T02:24:16;32.40;;;12.02;;
71790;SDS011;59638;52.126;5.434;2022-12-18T02:26:47;25.95;;;11.20;;
71790;SDS011;59638;52.126;5.434;2022-12-18T02:29:26;41.88;;;11.80;;
71790;SDS011;59638;52.126;5.434;2022-12-18T02:31:57;27.37;;;10.67;;
71790;SDS011;59638;52.126;5.434;2022-12-18T02:34:29;32.78;;;11.45;;
71790;SDS011;59638;52.126;5.434;2022-12-18T02:36:59;28.38;;;11.60;;
71790;SDS011;59638;52.126;5.434;2022-12-18T02:39:28;32.50;;;12.20;;
71790;SDS011;59638;52.126;5.434;2022-12-18T02:41:57;35.58;;;11.52;;
71790;SDS011;59638;52.126;5.434;2022-12-18T02:44:25;29.30;;;11.80;;
71790;SDS011;59638;52.126;5.434;2022-12-18T02:46:52;27.67;;;12.02;;
71790;SDS011;59638;52.126;5.434;2022-12-18T02:49:30;26.58;;;10.60;;
71790;SDS011;59638;52.126;5.434;2022-12-18T02:54:53;32.00;;;10.38;;
71790;SDS011;59638;52.126;5.434;2022-12-18T02:57:34;33.83;;;11.43;;
71790;SDS011;59638;52.126;5.434;2022-12-18T03:00:12;30.65;;;11.40;;
71790;SDS011;59638;52.126;5.434;2022-12-18T03:02:46;31.52;;;11.63;;
71790;SDS011;59638;52.126;5.434;2022-12-18T03:05:45;26.90;;;10.27;;
71790;SDS011;59638;52.126;5.434;2022-12-18T03:08:20;25.55;;;10.93;;
71790;SDS011;59638;52.126;5.434;2022-12-18T03:11:00;25.77;;;10.73;;
71790;SDS011;59638;52.126;5.434;2022-12-18T03:13:39;23.73;;;10.15;;
71790;SDS011;59638;52.126;5.434;2022-12-18T03:16:12;21.92;;;10.43;;
71790;SDS011;59638;52.126;5.434;2022-12-18T03:18:48;26.48;;;10.75;;
71790;SDS011;59638;52.126;5.434;2022-12-18T03:21:19;24.85;;;9.35;;
71790;SDS011;59638;52.126;5.434;2022-12-18T03:23:50;28.90;;;9.60;;
71790;SDS011;59638;52.126;5.434;2022-12-18T03:26:19;27.75;;;11.73;;
71790;SDS011;59638;52.126;5.434;2022-12-18T03:28:58;27.50;;;10.32;;
71790;SDS011;59638;52.126;5.434;2022-12-18T03:31:28;24.52;;;10.00;;
71790;SDS011;59638;52.126;5.434;2022-12-18T03:33:58;20.35;;;9.85;;
71790;SDS011;59638;52.126;5.434;2022-12-18T03:36:30;22.80;;;9.10;;
71790;SDS011;59638;52.126;5.434;2022-12-18T03:38:57;17.77;;;8.38;;
71790;SDS011;59638;52.126;5.434;2022-12-18T03:49:47;19.33;;;8.60;;
71790;SDS011;59638;52.126;5.434;2022-12-18T03:52:30;20.10;;;9.07;;
71790;SDS011;59638;52.126;5.434;2022-12-18T03:55:02;21.83;;;10.50;;
71790;SDS011;59638;52.126;5.434;2022-12-18T03:57:31;20.98;;;8.25;;
71790;SDS011;59638;52.126;5.434;2022-12-18T04:00:00;22.05;;;9.43;;
71790;SDS011;59638;52.126;5.434;2022-12-18T04:02:30;17.67;;;9.00;;
71790;SDS011;59638;52.126;5.434;2022-12-18T04:04:58;22.90;;;8.68;;
71790;SDS011;59638;52.126;5.434;2022-12-18T04:07:28;21.67;;;10.68;;
71790;SDS011;59638;52.126;5.434;2022-12-18T04:09:55;18.05;;;7.82;;
71790;SDS011;59638;52.126;5.434;2022-12-18T04:12:25;27.33;;;9.27;;
71790;SDS011;59638;52.126;5.434;2022-12-18T04:14:52;18.60;;;8.43;;
71790;SDS011;59638;52.126;5.434;2022-12-18T04:17:18;16.77;;;8.32;;
71790;SDS011;59638;52.126;5.434;2022-12-18T04:19:45;24.75;;;9.50;;
71790;SDS011;59638;52.126;5.434;2022-12-18T04:22:11;19.63;;;7.35;;
71790;SDS011;59638;52.126;5.434;2022-12-18T04:24:37;21.13;;;8.00;;
71790;SDS011;59638;52.126;5.434;2022-12-18T04:27:04;17.33;;;7.53;;
71790;SDS011;59638;52.126;5.434;2022-12-18T04:29:31;19.42;;;8.65;;
71790;SDS011;59638;52.126;5.434;2022-12-18T04:31:58;21.70;;;9.75;;
71790;SDS011;59638;52.126;5.434;2022-12-18T04:34:24;17.77;;;7.85;;
71790;SDS011;59638;52.126;5.434;2022-12-18T04:36:51;16.45;;;7.03;;
71790;SDS011;59638;52.126;5.434;2022-12-18T04:39:17;19.13;;;7.00;;
71790;SDS011;59638;52.126;5.434;2022-12-18T04:41:44;25.40;;;8.23;;
71790;SDS011;59638;52.126;5.434;2022-12-18T04:44:10;18.92;;;7.18;;
71790;SDS011;59638;52.126;5.434;2022-12-18T04:46:37;14.82;;;7.50;;
71790;SDS011;59638;52.126;5.434;2022-12-18T04:49:03;17.33;;;8.13;;
71790;SDS011;59638;52.126;5.434;2022-12-18T04:51:30;14.23;;;6.53;;
71790;SDS011;59638;52.126;5.434;2022-12-18T04:53:56;14.48;;;6.63;;
71790;SDS011;59638;52.126;5.434;2022-12-18T04:56:22;14.52;;;6.63;;
71790;SDS011;59638;52.126;5.434;2022-12-18T04:58:49;13.38;;;7.22;;
71790;SDS011;59638;52.126;5.434;2022-12-18T05:01:16;11.40;;;6.43;;
71790;SDS011;59638;52.126;5.434;2022-12-18T05:03:44;19.10;;;6.77;;
71790;SDS011;59638;52.126;5.434;2022-12-18T05:06:11;18.15;;;6.95;;
71790;SDS011;59638;52.126;5.434;2022-12-18T05:08:37;11.52;;;5.45;;
71790;SDS011;59638;52.126;5.434;2022-12-18T05:13:35;12.75;;;5.05;;
71790;SDS011;59638;52.126;5.434;2022-12-18T05:16:02;13.13;;;5.83;;
71790;SDS011;59638;52.126;5.434;2022-12-18T05:18:30;13.55;;;6.30;;
71790;SDS011;59638;52.126;5.434;2022-12-18T05:20:57;12.75;;;5.70;;
71790;SDS011;59638;52.126;5.434;2022-12-18T05:23:23;13.50;;;5.82;;
71790;SDS011;59638;52.126;5.434;2022-12-18T05:26:00;10.30;;;5.28;;
71790;SDS011;59638;52.126;5.434;2022-12-18T05:28:28;10.43;;;6.07;;
71790;SDS011;59638;52.126;5.434;2022-12-18T05:30:57;12.45;;;4.93;;
71790;SDS011;59638;52.126;5.434;2022-12-18T05:33:26;10.23;;;5.53;;
71790;SDS011;59638;52.126;5.434;2022-12-18T05:35:58;9.52;;;6.72;;
71790;SDS011;59638;52.126;5.434;2022-12-18T05:38:29;17.92;;;6.55;;
71790;SDS011;59638;52.126;5.434;2022-12-18T05:40:57;11.30;;;4.70;;
71790;SDS011;59638;52.126;5.434;2022-12-18T05:43:24;14.85;;;6.85;;
71790;SDS011;59638;52.126;5.434;2022-12-18T05:45:52;11.52;;;5.68;;
71790;SDS011;59638;52.126;5.434;2022-12-18T05:48:19;11.65;;;5.38;;
71790;SDS011;59638;52.126;5.434;2022-12-18T05:50:47;14.07;;;5.32;;
71790;SDS011;59638;52.126;5.434;2022-12-18T05:53:15;10.90;;;5.43;;
71790;SDS011;59638;52.126;5.434;2022-12-18T05:55:43;10.52;;;5.82;;
71790;SDS011;59638;52.126;5.434;2022-12-18T05:58:10;14.30;;;6.00;;
71790;SDS011;59638;52.126;5.434;2022-12-18T06:00:39;9.25;;;4.63;;
71790;SDS011;59638;52.126;5.434;2022-12-18T06:03:09;11.00;;;6.10;;
71790;SDS011;59638;52.126;5.434;2022-12-18T06:05:39;10.57;;;4.77;;
71790;SDS011;59638;52.126;5.434;2022-12-18T06:08:07;13.65;;;6.88;;
71790;SDS011;59638;52.126;5.434;2022-12-18T06:10:34;11.52;;;5.90;;
71790;SDS011;59638;52.126;5.434;2022-12-18T06:13:00;11.57;;;5.82;;
71790;SDS011;59638;52.126;5.434;2022-12-18T06:15:26;12.35;;;5.22;;
71790;SDS011;59638;52.126;5.434;2022-12-18T06:17:53;9.17;;;5.50;;
71790;SDS011;59638;52.126;5.434;2022-12-18T06:20:20;12.15;;;5.93;;
71790;SDS011;59638;52.126;5.434;2022-12-18T06:22:46;7.60;;;4.80;;
71790;SDS011;59638;52.126;5.434;2022-12-18T06:25:13;10.05;;;4.43;;
71790;SDS011;59638;52.126;5.434;2022-12-18T06:27:39;6.60;;;4.15;;
71790;SDS011;59638;52.126;5.434;2022-12-18T06:30:07;9.37;;;3.33;;
71790;SDS011;59638;52.126;5.434;2022-12-18T06:32:34;9.00;;;4.50;;
71790;SDS011;59638;52.126;5.434;2022-12-18T06:35:00;13.27;;;6.57;;
71790;SDS011;59638;52.126;5.434;2022-12-18T06:37:27;11.70;;;5.05;;
71790;SDS011;59638;52.126;5.434;2022-12-18T06:39:54;9.88;;;4.65;;
71790;SDS011;59638;52.126;5.434;2022-12-18T06:42:24;10.47;;;5.30;;
71790;SDS011;59638;52.126;5.434;2022-12-18T06:44:50;10.32;;;5.13;;
71790;SDS011;59638;52.126;5.434;2022-12-18T06:47:17;9.07;;;4.28;;
71790;SDS011;59638;52.126;5.434;2022-12-18T06:49:44;11.20;;;3.60;;
71790;SDS011;59638;52.126;5.434;2022-12-18T06:52:10;8.80;;;4.97;;
71790;SDS011;59638;52.126;5.434;2022-12-18T06:54:36;12.83;;;4.57;;
71790;SDS011;59638;52.126;5.434;2022-12-18T06:57:03;12.63;;;4.32;;
71790;SDS011;59638;52.126;5.434;2022-12-18T06:59:29;10.90;;;5.20;;
71790;SDS011;59638;52.126;5.434;2022-12-18T07:01:56;9.65;;;4.40;;
71790;SDS011;59638;52.126;5.434;2022-12-18T07:04:27;10.70;;;4.55;;
71790;SDS011;59638;52.126;5.434;2022-12-18T07:06:54;13.20;;;5.80;;
71790;SDS011;59638;52.126;5.434;2022-12-18T07:09:21;8.10;;;3.78;;
71790;SDS011;59638;52.126;5.434;2022-12-18T07:11:47;7.63;;;4.38;;
71790;SDS011;59638;52.126;5.434;2022-12-18T07:14:13;7.35;;;5.20;;
71790;SDS011;59638;52.126;5.434;2022-12-18T07:16:40;9.75;;;4.38;;
71790;SDS011;59638;52.126;5.434;2022-12-18T07:19:06;8.47;;;3.87;;
71790;SDS011;59638;52.126;5.434;2022-12-18T07:21:33;13.40;;;5.35;;
71790;SDS011;59638;52.126;5.434;2022-12-18T07:23:59;10.27;;;3.65;;
71790;SDS011;59638;52.126;5.434;2022-12-18T07:26:26;11.82;;;4.43;;
71790;SDS011;59638;52.126;5.434;2022-12-18T07:28:54;7.93;;;4.28;;
71790;SDS011;59638;52.126;5.434;2022-12-18T07:31:22;11.40;;;4.67;;
71790;SDS011;59638;52.126;5.434;2022-12-18T07:33:49;11.18;;;5.57;;
71790;SDS011;59638;52.126;5.434;2022-12-18T07:36:16;9.25;;;3.50;;
71790;SDS011;59638;52.126;5.434;2022-12-18T07:38:43;9.10;;;4.18;;
71790;SDS011;59638;52.126;5.434;2022-12-18T07:41:12;7.03;;;3.72;;
71790;SDS011;59638;52.126;5.434;2022-12-18T07:43:40;7.07;;;4.07;;
71790;SDS011;59638;52.126;5.434;2022-12-18T07:46:08;9.10;;;4.97;;
71790;SDS011;59638;52.126;5.434;2022-12-18T07:48:35;11.65;;;3.95;;
71790;SDS011;59638;52.126;5.434;2022-12-18T07:51:02;11.70;;;4.05;;
71790;SDS011;59638;52.126;5.434;2022-12-18T07:53:30;8.48;;;4.93;;
71790;SDS011;59638;52.126;5.434;2022-12-18T07:55:58;6.93;;;3.83;;
71790;SDS011;59638;52.126;5.434;2022-12-18T07:58:48;6.90;;;3.47;;
71790;SDS011;59638;52.126;5.434;2022-12-18T08:01:15;8.45;;;4.43;;
71790;SDS011;59638;52.126;5.434;2022-12-18T08:03:42;11.13;;;3.83;;
71790;SDS011;59638;52.126;5.434;2022-12-18T08:06:09;7.95;;;4.05;;
71790;SDS011;59638;52.126;5.434;2022-12-18T08:08:36;9.10;;;3.93;;
71790;SDS011;59638;52.126;5.434;2022-12-18T08:11:03;8.52;;;4.63;;
71790;SDS011;59638;52.126;5.434;2022-12-18T08:13:29;5.78;;;3.78;;
71790;SDS011;59638;52.126;5.434;2022-12-18T08:16:13;7.25;;;4.07;;
71790;SDS011;59638;52.126;5.434;2022-12-18T08:18:40;4.75;;;3.85;;
71790;SDS011;59638;52.126;5.434;2022-12-18T08:21:10;7.47;;;3.90;;
71790;SDS011;59638;52.126;5.434;2022-12-18T08:23:38;8.48;;;4.82;;
71790;SDS011;59638;52.126;5.434;2022-12-18T08:26:08;8.85;;;4.18;;
71790;SDS011;59638;52.126;5.434;2022-12-18T08:28:35;7.30;;;3.67;;
71790;SDS011;59638;52.126;5.434;2022-12-18T08:31:02;11.50;;;6.05;;
71790;SDS011;59638;52.126;5.434;2022-12-18T08:33:28;7.33;;;4.03;;
71790;SDS011;59638;52.126;5.434;2022-12-18T08:35:55;13.05;;;4.95;;
71790;SDS011;59638;52.126;5.434;2022-12-18T08:38:21;8.77;;;4.63;;
71790;SDS011;59638;52.126;5.434;2022-12-18T08:40:48;13.55;;;4.15;;
71790;SDS011;59638;52.126;5.434;2022-12-18T08:43:15;9.93;;;5.05;;
71790;SDS011;59638;52.126;5.434;2022-12-18T08:46:00;10.07;;;4.83;;
71790;SDS011;59638;52.126;5.434;2022-12-18T08:48:26;12.60;;;5.43;;
71790;SDS011;59638;52.126;5.434;2022-12-18T08:50:56;10.65;;;5.40;;
71790;SDS011;59638;52.126;5.434;2022-12-18T08:53:24;7.97;;;4.10;;
71790;SDS011;59638;52.126;5.434;2022-12-18T08:55:51;9.60;;;4.50;;
71790;SDS011;59638;52.126;5.434;2022-12-18T08:58:18;6.33;;;4.13;;
71790;SDS011;59638;52.126;5.434;2022-12-18T09:00:45;10.68;;;4.90;;
71790;SDS011;59638;52.126;5.434;2022-12-18T09:03:12;12.60;;;4.80;;
71790;SDS011;59638;52.126;5.434;2022-12-18T09:05:39;14.73;;;5.15;;
71790;SDS011;59638;52.126;5.434;2022-12-18T09:08:06;7.35;;;4.68;;
71790;SDS011;59638;52.126;5.434;2022-12-18T09:10:32;10.07;;;5.07;;
71790;SDS011;59638;52.126;5.434;2022-12-18T09:13:05;20.48;;;4.85;;
71790;SDS011;59638;52.126;5.434;2022-12-18T09:15:31;10.05;;;4.97;;
71790;SDS011;59638;52.126;5.434;2022-12-18T09:17:58;8.95;;;4.43;;
71790;SDS011;59638;52.126;5.434;2022-12-18T09:20:24;10.00;;;4.93;;
71790;SDS011;59638;52.126;5.434;2022-12-18T09:22:50;9.40;;;5.40;;
71790;SDS011;59638;52.126;5.434;2022-12-18T09:25:17;7.95;;;4.60;;
71790;SDS011;59638;52.126;5.434;2022-12-18T09:27:43;9.45;;;4.97;;
71790;SDS011;59638;52.126;5.434;2022-12-18T09:30:13;8.35;;;4.28;;
71790;SDS011;59638;52.126;5.434;2022-12-18T09:32:39;9.32;;;4.43;;
71790;SDS011;59638;52.126;5.434;2022-12-18T09:35:05;9.10;;;4.10;;
71790;SDS011;59638;52.126;5.434;2022-12-18T09:37:32;13.98;;;5.88;;
71790;SDS011;59638;52.126;5.434;2022-12-18T09:39:58;10.88;;;4.32;;
71790;SDS011;59638;52.126;5.434;2022-12-18T09:42:25;9.70;;;4.97;;
71790;SDS011;59638;52.126;5.434;2022-12-18T09:44:52;5.05;;;4.55;;
71790;SDS011;59638;52.126;5.434;2022-12-18T09:47:22;9.57;;;4.73;;
71790;SDS011;59638;52.126;5.434;2022-12-18T09:49:57;9.88;;;4.82;;
71790;SDS011;59638;52.126;5.434;2022-12-18T09:57:52;6.63;;;3.78;;
71790;SDS011;59638;52.126;5.434;2022-12-18T10:00:23;4.90;;;3.87;;
71790;SDS011;59638;52.126;5.434;2022-12-18T10:02:51;6.30;;;3.53;;
71790;SDS011;59638;52.126;5.434;2022-12-18T10:05:45;11.02;;;4.53;;
71790;SDS011;59638;52.126;5.434;2022-12-18T10:11:00;6.30;;;3.95;;
71790;SDS011;59638;52.126;5.434;2022-12-18T10:13:52;10.33;;;4.30;;
71790;SDS011;59638;52.126;5.434;2022-12-18T10:19:21;9.88;;;5.07;;
71790;SDS011;59638;52.126;5.434;2022-12-18T10:22:16;5.60;;;3.75;;
71790;SDS011;59638;52.126;5.434;2022-12-18T10:27:51;6.77;;;4.03;;
71790;SDS011;59638;52.126;5.434;2022-12-18T10:30:22;8.18;;;3.53;;
71790;SDS011;59638;52.126;5.434;2022-12-18T10:32:50;7.72;;;4.63;;
71790;SDS011;59638;52.126;5.434;2022-12-18T10:35:18;7.15;;;2.85;;
71790;SDS011;59638;52.126;5.434;2022-12-18T10:38:00;11.50;;;3.38;;
71790;SDS011;59638;52.126;5.434;2022-12-18T10:43:14;5.55;;;3.42;;
71790;SDS011;59638;52.126;5.434;2022-12-18T10:45:42;7.88;;;4.07;;
71790;SDS011;59638;52.126;5.434;2022-12-18T10:48:25;9.50;;;4.30;;
71790;SDS011;59638;52.126;5.434;2022-12-18T10:50:53;9.18;;;4.72;;
71790;SDS011;59638;52.126;5.434;2022-12-18T10:53:38;4.60;;;2.87;;
71790;SDS011;59638;52.126;5.434;2022-12-18T10:56:07;9.90;;;3.50;;
71790;SDS011;59638;52.126;5.434;2022-12-18T10:58:35;7.80;;;3.67;;
71790;SDS011;59638;52.126;5.434;2022-12-18T11:01:11;10.27;;;4.85;;
71790;SDS011;59638;52.126;5.434;2022-12-18T11:03:39;7.60;;;3.75;;
71790;SDS011;59638;52.126;5.434;2022-12-18T11:06:08;9.10;;;4.23;;
71790;SDS011;59638;52.126;5.434;2022-12-18T11:08:38;7.72;;;4.85;;
71790;SDS011;59638;52.126;5.434;2022-12-18T11:11:17;8.45;;;3.63;;
71790;SDS011;59638;52.126;5.434;2022-12-18T11:14:01;7.22;;;4.13;;
71790;SDS011;59638;52.126;5.434;2022-12-18T11:16:31;9.02;;;3.67;;
71790;SDS011;59638;52.126;5.434;2022-12-18T11:22:03;7.78;;;3.80;;
71790;SDS011;59638;52.126;5.434;2022-12-18T11:24:51;8.05;;;3.45;;
71790;SDS011;59638;52.126;5.434;2022-12-18T11:28:06;9.13;;;4.28;;
71790;SDS011;59638;52.126;5.434;2022-12-18T11:36:51;4.10;;;2.63;;
71790;SDS011;59638;52.126;5.434;2022-12-18T11:40:06;8.93;;;3.63;;
71790;SDS011;59638;52.126;5.434;2022-12-18T11:42:10;8.05;;;3.38;;
71790;SDS011;59638;52.126;5.434;2022-12-18T11:44:59;6.75;;;3.53;;
71790;SDS011;59638;52.126;5.434;2022-12-18T11:53:28;6.72;;;3.88;;
71790;SDS011;59638;52.126;5.434;2022-12-18T11:56:00;5.75;;;3.78;;
71790;SDS011;59638;52.126;5.434;2022-12-18T11:58:35;7.50;;;4.47;;
71790;SDS011;59638;52.126;5.434;2022-12-18T12:03:59;8.77;;;3.35;;
71790;SDS011;59638;52.126;5.434;2022-12-18T12:06:55;15.30;;;4.25;;
71790;SDS011;59638;52.126;5.434;2022-12-18T12:13:05;8.73;;;3.95;;
71790;SDS011;59638;52.126;5.434;2022-12-18T12:18:19;5.68;;;3.47;;
71790;SDS011;59638;52.126;5.434;2022-12-18T12:21:09;6.80;;;3.70;;
71790;SDS011;59638;52.126;5.434;2022-12-18T12:26:33;7.60;;;3.90;;
71790;SDS011;59638;52.126;5.434;2022-12-18T12:32:05;7.50;;;3.80;;
71790;SDS011;59638;52.126;5.434;2022-12-18T12:34:46;7.07;;;3.95;;
71790;SDS011;59638;52.126;5.434;2022-12-18T12:37:19;7.78;;;4.22;;
71790;SDS011;59638;52.126;5.434;2022-12-18T12:39:57;7.32;;;4.95;;
71790;SDS011;59638;52.126;5.434;2022-12-18T12:42:44;9.13;;;4.00;;
71790;SDS011;59638;52.126;5.434;2022-12-18T12:45:37;5.90;;;3.50;;
71790;SDS011;59638;52.126;5.434;2022-12-18T12:48:13;6.45;;;3.63;;
71790;SDS011;59638;52.126;5.434;2022-12-18T12:50:45;8.25;;;4.18;;
71790;SDS011;59638;52.126;5.434;2022-12-18T12:53:21;8.10;;;4.38;;
71790;SDS011;59638;52.126;5.434;2022-12-18T12:55:52;7.53;;;3.90;;
71790;SDS011;59638;52.126;5.434;2022-12-18T12:58:56;7.55;;;4.47;;
71790;SDS011;59638;52.126;5.434;2022-12-18T13:01:34;6.53;;;3.63;;
71790;SDS011;59638;52.126;5.434;2022-12-18T13:04:33;8.45;;;4.35;;
71790;SDS011;59638;52.126;5.434;2022-12-18T13:12:52;7.10;;;4.00;;
71790;SDS011;59638;52.126;5.434;2022-12-18T13:20:40;6.30;;;4.40;;
71790;SDS011;59638;52.126;5.434;2022-12-18T13:25:58;7.63;;;3.80;;
71790;SDS011;59638;52.126;5.434;2022-12-18T13:28:54;7.82;;;4.05;;
71790;SDS011;59638;52.126;5.434;2022-12-18T13:39:59;9.50;;;4.00;;
71790;SDS011;59638;52.126;5.434;2022-12-18T13:48:23;9.15;;;4.15;;
71790;SDS011;59638;52.126;5.434;2022-12-18T13:50:53;8.33;;;4.40;;
71790;SDS011;59638;52.126;5.434;2022-12-18T13:53:34;7.38;;;4.57;;
71790;SDS011;59638;52.126;5.434;2022-12-18T13:56:05;9.43;;;4.57;;
71790;SDS011;59638;52.126;5.434;2022-12-18T13:58:32;8.70;;;4.22;;
71790;SDS011;59638;52.126;5.434;2022-12-18T14:00:59;8.48;;;4.82;;
71790;SDS011;59638;52.126;5.434;2022-12-18T14:03:28;10.10;;;4.20;;
71790;SDS011;59638;52.126;5.434;2022-12-18T14:05:58;11.80;;;4.43;;
71790;SDS011;59638;52.126;5.434;2022-12-18T14:08:32;7.63;;;3.85;;
71790;SDS011;59638;52.126;5.434;2022-12-18T14:11:03;9.18;;;4.65;;
71790;SDS011;59638;52.126;5.434;2022-12-18T14:13:33;14.48;;;4.90;;
71790;SDS011;59638;52.126;5.434;2022-12-18T14:16:03;10.70;;;4.80;;
71790;SDS011;59638;52.126;5.434;2022-12-18T14:18:45;11.13;;;4.85;;
71790;SDS011;59638;52.126;5.434;2022-12-18T14:21:19;7.43;;;4.25;;
71790;SDS011;59638;52.126;5.434;2022-12-18T14:23:49;11.68;;;4.43;;
71790;SDS011;59638;52.126;5.434;2022-12-18T14:26:30;6.55;;;4.05;;
71790;SDS011;59638;52.126;5.434;2022-12-18T14:29:00;11.77;;;5.37;;
71790;SDS011;59638;52.126;5.434;2022-12-18T14:31:44;11.65;;;4.13;;
71790;SDS011;59638;52.126;5.434;2022-12-18T14:34:19;6.63;;;4.75;;
71790;SDS011;59638;52.126;5.434;2022-12-18T14:36:52;8.40;;;4.72;;
71790;SDS011;59638;52.126;5.434;2022-12-18T14:39:21;7.28;;;4.35;;
71790;SDS011;59638;52.126;5.434;2022-12-18T14:41:49;10.10;;;5.23;;
71790;SDS011;59638;52.126;5.434;2022-12-18T14:44:15;7.25;;;4.70;;
71790;SDS011;59638;52.126;5.434;2022-12-18T14:46:42;9.18;;;3.92;;
71790;SDS011;59638;52.126;5.434;2022-12-18T14:51:51;9.65;;;4.18;;
71790;SDS011;59638;52.126;5.434;2022-12-18T14:54:29;9.40;;;4.90;;
71790;SDS011;59638;52.126;5.434;2022-12-18T14:59:28;7.28;;;4.82;;
71790;SDS011;59638;52.126;5.434;2022-12-18T15:02:10;7.10;;;4.80;;
71790;SDS011;59638;52.126;5.434;2022-12-18T15:04:48;8.70;;;4.35;;
71790;SDS011;59638;52.126;5.434;2022-12-18T15:07:26;9.77;;;4.73;;
71790;SDS011;59638;52.126;5.434;2022-12-18T15:12:47;8.73;;;4.63;;
71790;SDS011;59638;52.126;5.434;2022-12-18T15:20:44;12.67;;;5.80;;
71790;SDS011;59638;52.126;5.434;2022-12-18T15:23:14;9.32;;;5.57;;
71790;SDS011;59638;52.126;5.434;2022-12-18T15:25:46;8.55;;;4.72;;
71790;SDS011;59638;52.126;5.434;2022-12-18T15:28:15;11.55;;;6.00;;
71790;SDS011;59638;52.126;5.434;2022-12-18T15:33:36;11.47;;;5.17;;
71790;SDS011;59638;52.126;5.434;2022-12-18T15:36:09;9.35;;;4.70;;
71790;SDS011;59638;52.126;5.434;2022-12-18T15:38:37;11.60;;;5.43;;
71790;SDS011;59638;52.126;5.434;2022-12-18T15:41:14;11.80;;;5.40;;
71790;SDS011;59638;52.126;5.434;2022-12-18T15:43:50;10.25;;;6.28;;
71790;SDS011;59638;52.126;5.434;2022-12-18T15:46:20;10.97;;;5.57;;
71790;SDS011;59638;52.126;5.434;2022-12-18T15:48:52;11.93;;;5.93;;
71790;SDS011;59638;52.126;5.434;2022-12-18T15:51:31;9.07;;;5.18;;
71790;SDS011;59638;52.126;5.434;2022-12-18T15:53:59;9.13;;;4.82;;
71790;SDS011;59638;52.126;5.434;2022-12-18T15:56:29;8.88;;;5.18;;
71790;SDS011;59638;52.126;5.434;2022-12-18T15:59:17;11.80;;;5.63;;
71790;SDS011;59638;52.126;5.434;2022-12-18T16:01:46;10.90;;;5.70;;
71790;SDS011;59638;52.126;5.434;2022-12-18T16:04:15;9.82;;;5.43;;
71790;SDS011;59638;52.126;5.434;2022-12-18T16:06:43;9.95;;;5.07;;
71790;SDS011;59638;52.126;5.434;2022-12-18T16:09:30;11.43;;;5.45;;
71790;SDS011;59638;52.126;5.434;2022-12-18T16:11:56;12.70;;;5.93;;
71790;SDS011;59638;52.126;5.434;2022-12-18T16:14:26;12.02;;;6.18;;
71790;SDS011;59638;52.126;5.434;2022-12-18T16:17:04;14.02;;;6.07;;
71790;SDS011;59638;52.126;5.434;2022-12-18T16:19:35;10.13;;;5.95;;
71790;SDS011;59638;52.126;5.434;2022-12-18T16:22:01;14.43;;;5.43;;
71790;SDS011;59638;52.126;5.434;2022-12-18T16:24:29;15.23;;;5.40;;
71790;SDS011;59638;52.126;5.434;2022-12-18T16:26:57;10.30;;;5.35;;
71790;SDS011;59638;52.126;5.434;2022-12-18T16:29:26;8.95;;;5.45;;
71790;SDS011;59638;52.126;5.434;2022-12-18T16:31:57;13.30;;;6.18;;
71790;SDS011;59638;52.126;5.434;2022-12-18T16:34:26;10.77;;;6.35;;
71790;SDS011;59638;52.126;5.434;2022-12-18T16:36:55;12.23;;;6.23;;
71790;SDS011;59638;52.126;5.434;2022-12-18T16:39:30;18.75;;;7.78;;
71790;SDS011;59638;52.126;5.434;2022-12-18T16:41:57;14.57;;;5.72;;
71790;SDS011;59638;52.126;5.434;2022-12-18T16:44:24;11.27;;;6.35;;
71790;SDS011;59638;52.126;5.434;2022-12-18T16:46:51;12.00;;;5.70;;
71790;SDS011;59638;52.126;5.434;2022-12-18T16:49:18;13.77;;;6.83;;
71790;SDS011;59638;52.126;5.434;2022-12-18T16:51:47;10.95;;;6.07;;
71790;SDS011;59638;52.126;5.434;2022-12-18T16:54:14;13.65;;;7.57;;
71790;SDS011;59638;52.126;5.434;2022-12-18T16:56:44;12.63;;;6.03;;